• Join FlightAware (Why Join?)
  • Login
  • US Flag 
07:51PM EST


 

Airport Tracker/Info


-or-


 

Live Flight TrackerFlight Track Log ✈ EGF2832 ✈ 30-Apr-2013 ✈ KSAF - KDFW

Flight Track Log - Related Links

Times and Time Zones

All times are in EDT time to prevent confusion due to time zone crossing. See the EGF2832 flight status page for this flight to view local times or setup timezone preferences in your user account.

Time Position Orientation Groundspeed Altitude Reporting Facility
EDT Latitude Longitude Course Direction KTS MPH feet Rate Location/Type
07:18PM 35.5883 -106.1097 115° Southeast 175 201 7,800  Level Albuquerque Center
07:19PM 35.5358 -106.0614 143° Southeast 252 290 10,100 2,400 Climbing Albuquerque Center
07:20PM 35.5039 -105.9789 115° Southeast 263 303 12,800 2,340 Climbing Albuquerque Center
07:21PM 35.4717 -105.8950 115° Southeast 270 311 14,900 2,100 Climbing Albuquerque Center
07:22PM 35.4306 -105.7978 117° Southeast 287 330 17,200 1,980 Climbing Albuquerque Center
07:24PM 35.2442 -105.3647 115° Southeast  Level FlightAware Approximate
07:24PM 35.3908 -105.7008 117° Southeast 307 353 19,000  Level Albuquerque Center
07:25PM 35.3433 -105.5917 118° Southeast 346 398 20,600 1,560 Climbing Albuquerque Center
07:26PM 35.2967 -105.4772 117° Southeast 367 422 22,300 1,620 Climbing Albuquerque Center
07:27PM 35.2467 -105.3589 117° Southeast 382 440 24,000 1,740 Climbing Albuquerque Center
07:28PM 35.1958 -105.2397 118° Southeast 390 449 25,900 1,800 Climbing Albuquerque Center
07:29PM 35.1453 -105.1211 118° Southeast 390 449 27,800 1,860 Climbing Albuquerque Center
07:30PM 35.0928 -104.9811 115° Southeast 389 448 29,800 1,800 Climbing Albuquerque Center
07:31PM 35.0614 -104.8544 107° East 387 445 31,500 1,560 Climbing Albuquerque Center
07:32PM 35.0272 -104.7294 108° East 387 445 33,000 720 Climbing Albuquerque Center
07:33PM 34.9917 -104.6003 109° East 396 456 33,000  Level Albuquerque Center
07:34PM 34.9558 -104.4717 109° East 400 460 33,100 1,080 Climbing Albuquerque Center
07:35PM 34.9211 -104.3422 108° East 401 461 35,300 1,740 Climbing Albuquerque Center
07:36PM 34.8872 -104.2208 109° East 385 443 36,700 780 Climbing Albuquerque Center
07:37PM 34.8522 -104.0983 109° East 383 441 37,000 120 Climbing Albuquerque Center
07:38PM 34.8122 -103.9511 108° East 389 448 37,000  Level Albuquerque Center
07:39PM 34.7767 -103.8217 108° East 399 459 37,000  Level Albuquerque Center
07:40PM 34.7394 -103.6917 109° East 403 464 37,000  Level Albuquerque Center
07:41PM 34.7028 -103.5622 109° East 403 464 37,000  Level Albuquerque Center
07:42PM 34.6683 -103.4333 108° East 400 460 37,000  Level Albuquerque Center
07:43PM 34.6525 -103.3008 98° East 395 455 37,000  Level Albuquerque Center
07:44PM 34.6336 -103.1694 100° East 393 452 37,000  Level Albuquerque Center
07:45PM 34.6150 -103.0397 100° East 389 448 37,000  Level Albuquerque Center
07:46PM 34.5947 -102.9117 101° East 386 444 37,000  Level Albuquerque Center
07:47PM 34.5750 -102.7817 100° East 389 448 37,000  Level Albuquerque Center
07:48PM 34.5528 -102.6431 101° East 385 443 37,000  Level Albuquerque Center
07:49PM 34.5347 -102.5161 100° East 384 442 37,000  Level Albuquerque Center
07:50PM 34.5150 -102.3911 101° East 381 438 37,000  Level Albuquerque Center
07:51PM 34.4950 -102.2650 101° East 382 440 37,000  Level Albuquerque Center
07:52PM 34.4719 -102.1150 101° East 380 437 37,000  Level Albuquerque Center
07:53PM 34.4517 -101.9894 101° East 381 438 37,000  Level Albuquerque Center
07:54PM 34.4325 -101.8647 101° East 381 438 37,000  Level Albuquerque Center
07:55PM 34.4122 -101.7419 101° East 377 434 37,000  Level Albuquerque Center
07:56PM 34.3933 -101.6175 100° East 377 434 37,000  Level Albuquerque Center
07:57PM 34.3722 -101.4942 102° East 376 433 37,000  Level Albuquerque Center
07:58PM 34.3614 -101.4236 101° East 379 436 37,000  Level Fort Worth Center
07:59PM 34.3422 -101.3019 101° East 377 434 37,000  Level Fort Worth Center
08:00PM 34.3189 -101.1778 103° East 372 428 37,000  Level Fort Worth Center
08:01PM 34.2997 -101.0511 100° East 383 441 37,000  Level Fort Worth Center
08:02PM 34.2844 -100.9272 98° East 383 441 37,000  Level Fort Worth Center
08:03PM 34.2692 -100.8011 98° East 383 441 37,000  Level Fort Worth Center
08:04PM 34.2433 -100.6769 104° East 378 435 37,000  Level Fort Worth Center
08:05PM 34.2131 -100.5553 107° East 378 435 37,000  Level Fort Worth Center
08:06PM 34.1828 -100.4286 106° East 383 441 37,000  Level Fort Worth Center
08:07PM 34.1544 -100.3097 106° East 389 448 37,000  Level Fort Worth Center
08:08PM 34.1219 -100.1731 106° East 405 466 37,000  Level Fort Worth Center
08:09PM 34.0914 -100.0392 105° East 412 474 37,000  Level Fort Worth Center
08:10PM 34.0567 -99.9003 107° East 422 486 37,000  Level Fort Worth Center
08:11PM 34.0239 -99.7617 106° East 422 486 37,000  Level Fort Worth Center
08:12PM 33.9892 -99.6103 105° East 422 486 37,000 -480 Level Fort Worth Center
08:13PM 33.9539 -99.4717 107° East 422 486 36,100 -1,500 Descending Fort Worth Center
08:14PM 33.9186 -99.3358 107° East 422 486 34,100 -2,040 Descending Fort Worth Center
08:15PM 33.8850 -99.2000 107° East 422 486 32,100 -2,040 Descending Fort Worth Center
08:16PM 33.8517 -99.0592 106° East 427 491 30,100 -2,040 Descending Fort Worth Center
08:17PM 33.8117 -98.9158 109° East 432 497 28,100 -2,100 Descending Fort Worth Center
08:18PM 33.7631 -98.7728 112° Southeast 450 518 26,000 -1,920 Descending Fort Worth Center
08:19PM 33.7186 -98.6347 111° Southeast 455 524 24,300 -1,080 Descending Fort Worth Center
08:20PM 33.6700 -98.4892 112° Southeast 455 524 23,900 -1,380 Descending Fort Worth Center
08:21PM 33.6272 -98.3564 111° Southeast 446 513 21,600 -2,400 Descending Fort Worth Center
08:22PM 33.5822 -98.2264 113° Southeast 432 497 19,100 -2,580 Descending Fort Worth Center
08:23PM 33.5433 -98.1114 112° Southeast 412 474 16,500 -2,700 Descending Fort Worth Center
08:24PM 33.4958 -97.9739 112° Southeast 412 474 13,800 -2,100 Descending Fort Worth Center
08:25PM 33.4628 -97.8742 112° Southeast 382 440 12,300 -1,380 Descending Fort Worth Center
08:26PM 33.4236 -97.7669 114° Southeast 326 375 11,100 -720 Descending Fort Worth Center
08:27PM 33.3967 -97.6847 111° Southeast 297 342 10,900 -600 Descending Fort Worth Center
08:28PM 33.3531 -97.6025 122° Southeast 291 335 10,000 -1,020 Descending Fort Worth Center
08:29PM 33.2925 -97.5253 133° Southeast 291 335 8,900 -1,020 Descending Fort Worth Center
08:30PM 33.2361 -97.4606 136° Southeast 286 329 8,000 -900 Descending Fort Worth Center
08:31PM 33.1861 -97.3961 133° Southeast 273 314 7,200 -780 Descending Fort Worth Center
08:32PM 33.1361 -97.3342 134° Southeast 268 308 6,500 -900 Descending Fort Worth Center
08:33PM 33.0858 -97.2722 134° Southeast 256 295 5,400 -1,140 Descending Fort Worth Center